sensor_id;sensor_type;location;lat;lon;timestamp;pressure;altitude;pressure_sealevel;temperature;humidity
14966;BME280;7577;45.226;5.798;2022-07-21T00:00:58;98411.11;;;27.15;56.12
14966;BME280;7577;45.226;5.798;2022-07-21T00:03:28;98412.05;;;27.26;55.17
14966;BME280;7577;45.226;5.798;2022-07-21T00:05:58;98406.64;;;27.23;55.10
14966;BME280;7577;45.226;5.798;2022-07-21T00:08:30;98412.92;;;27.13;55.30
14966;BME280;7577;45.226;5.798;2022-07-21T00:11:00;98416.05;;;27.08;55.62
14966;BME280;7577;45.226;5.798;2022-07-21T00:13:31;98416.40;;;27.03;55.90
14966;BME280;7577;45.226;5.798;2022-07-21T00:16:01;98409.71;;;27.15;55.85
14966;BME280;7577;45.226;5.798;2022-07-21T00:21:14;98412.22;;;27.47;54.21
14966;BME280;7577;45.226;5.798;2022-07-21T00:23:44;98414.67;;;27.55;54.53
14966;BME280;7577;45.226;5.798;2022-07-21T00:26:15;98413.17;;;27.41;55.19
14966;BME280;7577;45.226;5.798;2022-07-21T00:28:45;98417.73;;;27.36;54.84
14966;BME280;7577;45.226;5.798;2022-07-21T00:31:15;98412.52;;;27.35;54.49
14966;BME280;7577;45.226;5.798;2022-07-21T00:33:45;98409.55;;;27.37;54.35
14966;BME280;7577;45.226;5.798;2022-07-21T00:36:17;98407.01;;;27.45;54.38
14966;BME280;7577;45.226;5.798;2022-07-21T00:38:47;98409.89;;;27.29;54.53
14966;BME280;7577;45.226;5.798;2022-07-21T00:41:18;98411.03;;;27.24;55.01
14966;BME280;7577;45.226;5.798;2022-07-21T00:43:48;98411.77;;;27.41;54.24
14966;BME280;7577;45.226;5.798;2022-07-21T00:46:20;98411.94;;;27.35;54.77
14966;BME280;7577;45.226;5.798;2022-07-21T00:48:50;98410.29;;;27.31;54.21
14966;BME280;7577;45.226;5.798;2022-07-21T00:51:20;98411.89;;;27.32;54.01
14966;BME280;7577;45.226;5.798;2022-07-21T00:53:50;98416.27;;;27.29;54.12
14966;BME280;7577;45.226;5.798;2022-07-21T00:56:22;98418.68;;;27.31;53.87
14966;BME280;7577;45.226;5.798;2022-07-21T00:58:52;98415.48;;;27.12;53.77
14966;BME280;7577;45.226;5.798;2022-07-21T01:04:03;98419.42;;;27.48;53.36
14966;BME280;7577;45.226;5.798;2022-07-21T01:06:34;98427.41;;;27.46;52.43
14966;BME280;7577;45.226;5.798;2022-07-21T01:11:48;98420.49;;;26.93;53.31
14966;BME280;7577;45.226;5.798;2022-07-21T01:14:18;98423.27;;;26.89;53.15
14966;BME280;7577;45.226;5.798;2022-07-21T01:16:49;98420.39;;;27.02;53.35
14966;BME280;7577;45.226;5.798;2022-07-21T01:19:20;98416.68;;;27.11;53.26
14966;BME280;7577;45.226;5.798;2022-07-21T01:21:50;98412.94;;;27.17;53.25
14966;BME280;7577;45.226;5.798;2022-07-21T01:24:21;98411.42;;;27.23;52.88
14966;BME280;7577;45.226;5.798;2022-07-21T01:26:53;98411.09;;;27.11;52.54
14966;BME280;7577;45.226;5.798;2022-07-21T01:29:23;98408.11;;;27.14;52.71
14966;BME280;7577;45.226;5.798;2022-07-21T01:31:53;98410.73;;;27.16;53.10
14966;BME280;7577;45.226;5.798;2022-07-21T01:34:23;98411.29;;;27.12;53.04
14966;BME280;7577;45.226;5.798;2022-07-21T01:36:53;98406.48;;;27.09;52.91
14966;BME280;7577;45.226;5.798;2022-07-21T01:39:23;98407.23;;;27.03;53.20
14966;BME280;7577;45.226;5.798;2022-07-21T01:42:11;98404.91;;;26.92;53.36
14966;BME280;7577;45.226;5.798;2022-07-21T01:44:41;98407.64;;;26.65;54.07
14966;BME280;7577;45.226;5.798;2022-07-21T01:47:11;98407.29;;;26.70;54.33
14966;BME280;7577;45.226;5.798;2022-07-21T01:49:41;98401.61;;;26.79;54.06
14966;BME280;7577;45.226;5.798;2022-07-21T01:52:12;98397.68;;;26.67;54.23
14966;BME280;7577;45.226;5.798;2022-07-21T01:54:43;98401.67;;;26.66;54.66
14966;BME280;7577;45.226;5.798;2022-07-21T01:57:13;98398.03;;;26.62;54.71
14966;BME280;7577;45.226;5.798;2022-07-21T02:02:24;98392.05;;;26.31;55.17
14966;BME280;7577;45.226;5.798;2022-07-21T02:07:37;98398.75;;;25.93;55.25
14966;BME280;7577;45.226;5.798;2022-07-21T02:10:09;98406.09;;;25.66;55.96
14966;BME280;7577;45.226;5.798;2022-07-21T02:12:39;98400.48;;;25.49;56.55
14966;BME280;7577;45.226;5.798;2022-07-21T02:15:10;98403.55;;;25.54;56.70
14966;BME280;7577;45.226;5.798;2022-07-21T02:17:41;98395.59;;;25.69;56.16
14966;BME280;7577;45.226;5.798;2022-07-21T02:20:14;98399.28;;;25.76;55.48
14966;BME280;7577;45.226;5.798;2022-07-21T02:22:44;98402.03;;;25.73;55.60
14966;BME280;7577;45.226;5.798;2022-07-21T02:25:14;98410.23;;;25.62;56.12
14966;BME280;7577;45.226;5.798;2022-07-21T02:27:45;98411.09;;;25.66;56.75
14966;BME280;7577;45.226;5.798;2022-07-21T02:30:15;98413.03;;;25.62;56.71
14966;BME280;7577;45.226;5.798;2022-07-21T02:32:46;98404.00;;;25.72;56.35
14966;BME280;7577;45.226;5.798;2022-07-21T02:35:17;98403.20;;;25.85;55.93
14966;BME280;7577;45.226;5.798;2022-07-21T02:37:47;98409.83;;;25.60;56.38
14966;BME280;7577;45.226;5.798;2022-07-21T02:40:17;98409.66;;;25.63;56.59
14966;BME280;7577;45.226;5.798;2022-07-21T02:42:47;98403.55;;;25.54;56.28
14966;BME280;7577;45.226;5.798;2022-07-21T02:45:17;98397.95;;;25.28;57.17
14966;BME280;7577;45.226;5.798;2022-07-21T02:47:55;98404.77;;;25.21;57.43
14966;BME280;7577;45.226;5.798;2022-07-21T02:50:29;98402.83;;;25.12;57.74
14966;BME280;7577;45.226;5.798;2022-07-21T02:53:01;98400.59;;;25.21;57.90
14966;BME280;7577;45.226;5.798;2022-07-21T02:55:31;98403.25;;;25.01;58.18
14966;BME280;7577;45.226;5.798;2022-07-21T03:00:49;98401.21;;;25.33;57.06
14966;BME280;7577;45.226;5.798;2022-07-21T03:03:21;98402.14;;;25.18;57.42
14966;BME280;7577;45.226;5.798;2022-07-21T03:05:52;98403.39;;;24.76;58.68
14966;BME280;7577;45.226;5.798;2022-07-21T03:08:23;98401.50;;;24.70;59.12
14966;BME280;7577;45.226;5.798;2022-07-21T03:10:53;98401.75;;;24.84;58.74
14966;BME280;7577;45.226;5.798;2022-07-21T03:13:24;98404.59;;;24.65;59.18
14966;BME280;7577;45.226;5.798;2022-07-21T03:18:38;98404.84;;;24.79;58.96
14966;BME280;7577;45.226;5.798;2022-07-21T03:21:10;98403.45;;;24.79;58.86
14966;BME280;7577;45.226;5.798;2022-07-21T03:23:41;98405.16;;;24.65;58.95
14966;BME280;7577;45.226;5.798;2022-07-21T03:26:13;98405.77;;;24.64;58.91
14966;BME280;7577;45.226;5.798;2022-07-21T03:28:46;98404.36;;;24.45;59.20
14966;BME280;7577;45.226;5.798;2022-07-21T03:31:16;98405.48;;;24.41;59.24
14966;BME280;7577;45.226;5.798;2022-07-21T03:33:47;98405.84;;;24.39;59.22
14966;BME280;7577;45.226;5.798;2022-07-21T03:36:17;98417.13;;;24.46;59.39
14966;BME280;7577;45.226;5.798;2022-07-21T03:38:47;98406.27;;;24.41;59.37
14966;BME280;7577;45.226;5.798;2022-07-21T03:41:18;98409.50;;;24.43;59.16
14966;BME280;7577;45.226;5.798;2022-07-21T03:43:48;98413.47;;;24.42;59.10
14966;BME280;7577;45.226;5.798;2022-07-21T03:46:18;98418.01;;;24.41;59.14
14966;BME280;7577;45.226;5.798;2022-07-21T03:48:48;98422.55;;;24.49;59.16
14966;BME280;7577;45.226;5.798;2022-07-21T03:51:18;98415.22;;;24.50;59.26
14966;BME280;7577;45.226;5.798;2022-07-21T03:53:49;98422.39;;;24.70;58.63
14966;BME280;7577;45.226;5.798;2022-07-21T03:59:00;98425.80;;;24.83;58.36
14966;BME280;7577;45.226;5.798;2022-07-21T04:04:13;98429.94;;;25.02;58.42
14966;BME280;7577;45.226;5.798;2022-07-21T04:06:43;98425.20;;;24.93;58.73
14966;BME280;7577;45.226;5.798;2022-07-21T04:09:15;98432.09;;;25.12;57.45
14966;BME280;7577;45.226;5.798;2022-07-21T04:11:46;98433.25;;;25.20;57.25
14966;BME280;7577;45.226;5.798;2022-07-21T04:14:16;98429.64;;;24.97;57.89
14966;BME280;7577;45.226;5.798;2022-07-21T04:16:46;98432.81;;;24.64;58.70
14966;BME280;7577;45.226;5.798;2022-07-21T04:19:16;98430.84;;;24.36;59.87
14966;BME280;7577;45.226;5.798;2022-07-21T04:21:47;98426.22;;;24.15;60.78
14966;BME280;7577;45.226;5.798;2022-07-21T04:24:17;98429.06;;;23.99;61.24
14966;BME280;7577;45.226;5.798;2022-07-21T04:26:47;98421.96;;;24.02;61.14
14966;BME280;7577;45.226;5.798;2022-07-21T04:29:17;98418.52;;;23.99;60.98
14966;BME280;7577;45.226;5.798;2022-07-21T04:31:48;98423.94;;;23.92;61.21
14966;BME280;7577;45.226;5.798;2022-07-21T04:34:18;98416.55;;;23.99;61.31
14966;BME280;7577;45.226;5.798;2022-07-21T04:36:48;98417.14;;;24.08;61.17
14966;BME280;7577;45.226;5.798;2022-07-21T04:39:18;98418.81;;;24.22;60.86
14966;BME280;7577;45.226;5.798;2022-07-21T04:41:49;98416.25;;;24.33;60.42
14966;BME280;7577;45.226;5.798;2022-07-21T04:44:19;98412.95;;;24.27;60.78
14966;BME280;7577;45.226;5.798;2022-07-21T04:46:49;98420.88;;;24.25;60.42
14966;BME280;7577;45.226;5.798;2022-07-21T04:49:19;98420.66;;;24.15;60.70
14966;BME280;7577;45.226;5.798;2022-07-21T04:51:49;98420.72;;;24.18;60.39
14966;BME280;7577;45.226;5.798;2022-07-21T04:54:19;98417.78;;;24.21;60.05
14966;BME280;7577;45.226;5.798;2022-07-21T04:56:49;98420.59;;;24.11;59.55
14966;BME280;7577;45.226;5.798;2022-07-21T05:02:02;98419.25;;;24.62;59.56
14966;BME280;7577;45.226;5.798;2022-07-21T05:04:33;98419.16;;;24.59;59.60
14966;BME280;7577;45.226;5.798;2022-07-21T05:07:03;98422.29;;;24.76;59.00
14966;BME280;7577;45.226;5.798;2022-07-21T05:09:36;98421.89;;;24.97;58.97
14966;BME280;7577;45.226;5.798;2022-07-21T05:12:09;98426.66;;;24.87;59.17
14966;BME280;7577;45.226;5.798;2022-07-21T05:14:40;98430.09;;;24.99;59.02
14966;BME280;7577;45.226;5.798;2022-07-21T05:19:55;98428.48;;;25.43;58.40
14966;BME280;7577;45.226;5.798;2022-07-21T05:22:25;98428.16;;;25.61;57.51
14966;BME280;7577;45.226;5.798;2022-07-21T05:24:55;98433.41;;;25.79;55.30
14966;BME280;7577;45.226;5.798;2022-07-21T05:27:26;98435.23;;;25.94;54.75
14966;BME280;7577;45.226;5.798;2022-07-21T05:29:56;98431.64;;;26.07;54.61
14966;BME280;7577;45.226;5.798;2022-07-21T05:32:27;98431.66;;;26.23;53.98
14966;BME280;7577;45.226;5.798;2022-07-21T05:34:57;98432.92;;;26.95;53.27
14966;BME280;7577;45.226;5.798;2022-07-21T05:37:27;98431.09;;;28.22;48.39
14966;BME280;7577;45.226;5.798;2022-07-21T05:42:39;98428.81;;;30.58;43.05
14966;BME280;7577;45.226;5.798;2022-07-21T05:45:10;98430.71;;;30.86;41.22
14966;BME280;7577;45.226;5.798;2022-07-21T05:47:41;98429.02;;;30.95;40.69
14966;BME280;7577;45.226;5.798;2022-07-21T05:50:13;98432.76;;;31.40;39.49
14966;BME280;7577;45.226;5.798;2022-07-21T05:55:30;98438.11;;;33.74;35.33
14966;BME280;7577;45.226;5.798;2022-07-21T05:58:00;98437.98;;;33.69;35.13
14966;BME280;7577;45.226;5.798;2022-07-21T06:00:31;98435.98;;;34.35;34.47
14966;BME280;7577;45.226;5.798;2022-07-21T06:03:01;98446.15;;;35.43;32.65
14966;BME280;7577;45.226;5.798;2022-07-21T06:05:31;98438.91;;;35.82;31.39
14966;BME280;7577;45.226;5.798;2022-07-21T06:10:42;98444.95;;;37.18;29.69
14966;BME280;7577;45.226;5.798;2022-07-21T06:13:12;98445.39;;;38.09;28.64
14966;BME280;7577;45.226;5.798;2022-07-21T06:15:43;98454.73;;;38.65;27.55
14966;BME280;7577;45.226;5.798;2022-07-21T06:18:13;98462.00;;;38.62;27.11
14966;BME280;7577;45.226;5.798;2022-07-21T06:20:44;98455.53;;;37.68;27.79
14966;BME280;7577;45.226;5.798;2022-07-21T06:23:14;98457.08;;;37.94;28.23
14966;BME280;7577;45.226;5.798;2022-07-21T06:25:45;98456.78;;;38.86;26.92
14966;BME280;7577;45.226;5.798;2022-07-21T06:28:15;98459.63;;;39.34;26.19
14966;BME280;7577;45.226;5.798;2022-07-21T06:30:46;98459.23;;;38.75;26.24
14966;BME280;7577;45.226;5.798;2022-07-21T06:36:00;98469.05;;;39.57;26.05
14966;BME280;7577;45.226;5.798;2022-07-21T06:38:30;98471.75;;;39.25;25.88
14966;BME280;7577;45.226;5.798;2022-07-21T06:41:00;98474.58;;;39.91;25.15
14966;BME280;7577;45.226;5.798;2022-07-21T06:43:30;98474.51;;;40.57;24.36
14966;BME280;7577;45.226;5.798;2022-07-21T06:46:00;98471.67;;;40.80;24.26
14966;BME280;7577;45.226;5.798;2022-07-21T06:48:30;98476.45;;;41.42;23.75
14966;BME280;7577;45.226;5.798;2022-07-21T06:51:00;98473.60;;;41.75;22.98
14966;BME280;7577;45.226;5.798;2022-07-21T06:53:30;98473.88;;;40.53;23.75
14966;BME280;7577;45.226;5.798;2022-07-21T06:56:00;98479.52;;;40.13;24.26
14966;BME280;7577;45.226;5.798;2022-07-21T07:01:17;98476.56;;;40.88;24.12
14966;BME280;7577;45.226;5.798;2022-07-21T07:03:49;98481.26;;;41.27;23.46
14966;BME280;7577;45.226;5.798;2022-07-21T07:06:19;98477.27;;;41.75;22.74
14966;BME280;7577;45.226;5.798;2022-07-21T07:08:50;98480.60;;;41.37;22.58
14966;BME280;7577;45.226;5.798;2022-07-21T07:11:20;98479.59;;;40.44;23.70
14966;BME280;7577;45.226;5.798;2022-07-21T07:13:50;98475.94;;;40.57;23.68
14966;BME280;7577;45.226;5.798;2022-07-21T07:16:20;98476.56;;;40.30;24.06
14966;BME280;7577;45.226;5.798;2022-07-21T07:18:50;98480.86;;;40.25;24.20
14966;BME280;7577;45.226;5.798;2022-07-21T07:21:21;98478.75;;;39.64;24.42
14966;BME280;7577;45.226;5.798;2022-07-21T07:23:51;98474.93;;;40.15;24.43
14966;BME280;7577;45.226;5.798;2022-07-21T07:26:21;98473.08;;;40.89;23.69
14966;BME280;7577;45.226;5.798;2022-07-21T07:28:51;98470.61;;;39.84;24.41
14966;BME280;7577;45.226;5.798;2022-07-21T07:31:21;98466.70;;;38.21;26.29
14966;BME280;7577;45.226;5.798;2022-07-21T07:33:51;98471.42;;;38.93;25.22
14966;BME280;7577;45.226;5.798;2022-07-21T07:36:21;98470.78;;;39.94;24.47
14966;BME280;7577;45.226;5.798;2022-07-21T07:38:52;98467.66;;;40.10;24.27
14966;BME280;7577;45.226;5.798;2022-07-21T07:41:23;98469.20;;;39.97;24.69
14966;BME280;7577;45.226;5.798;2022-07-21T07:43:55;98460.73;;;41.75;22.60
14966;BME280;7577;45.226;5.798;2022-07-21T07:46:26;98460.39;;;40.81;22.94
14966;BME280;7577;45.226;5.798;2022-07-21T07:48:56;98453.36;;;41.09;22.92
14966;BME280;7577;45.226;5.798;2022-07-21T07:51:28;98459.49;;;41.67;22.37
14966;BME280;7577;45.226;5.798;2022-07-21T07:53:58;98457.33;;;40.08;23.89
14966;BME280;7577;45.226;5.798;2022-07-21T07:59:13;98444.90;;;41.19;22.68
14966;BME280;7577;45.226;5.798;2022-07-21T08:01:43;98448.64;;;41.38;23.20
14966;BME280;7577;45.226;5.798;2022-07-21T08:04:13;98447.70;;;42.02;22.13
14966;BME280;7577;45.226;5.798;2022-07-21T08:06:43;98441.45;;;41.06;23.08
14966;BME280;7577;45.226;5.798;2022-07-21T08:09:13;98446.77;;;38.82;25.02
14966;BME280;7577;45.226;5.798;2022-07-21T08:14:24;98433.55;;;40.87;23.10
14966;BME280;7577;45.226;5.798;2022-07-21T08:16:55;98429.44;;;41.71;22.71
14966;BME280;7577;45.226;5.798;2022-07-21T08:19:26;98436.09;;;40.76;23.31
14966;BME280;7577;45.226;5.798;2022-07-21T08:21:57;98432.88;;;41.52;22.38
14966;BME280;7577;45.226;5.798;2022-07-21T08:24:27;98434.27;;;41.89;21.88
14966;BME280;7577;45.226;5.798;2022-07-21T08:26:57;98436.97;;;41.92;21.82
14966;BME280;7577;45.226;5.798;2022-07-21T08:29:27;98431.64;;;41.48;22.41
14966;BME280;7577;45.226;5.798;2022-07-21T08:31:57;98429.16;;;40.19;23.65
14966;BME280;7577;45.226;5.798;2022-07-21T08:34:27;98430.58;;;38.70;25.97
14966;BME280;7577;45.226;5.798;2022-07-21T08:36:57;98425.59;;;39.39;24.81
14966;BME280;7577;45.226;5.798;2022-07-21T08:39:27;98416.97;;;39.65;24.52
14966;BME280;7577;45.226;5.798;2022-07-21T08:41:58;98418.13;;;41.40;23.03
14966;BME280;7577;45.226;5.798;2022-07-21T08:44:29;98413.52;;;40.96;23.96
14966;BME280;7577;45.226;5.798;2022-07-21T08:47:01;98411.62;;;37.56;29.09
14966;BME280;7577;45.226;5.798;2022-07-21T08:49:32;98409.17;;;38.43;30.11
14966;BME280;7577;45.226;5.798;2022-07-21T08:52:06;98415.73;;;38.75;29.34
14966;BME280;7577;45.226;5.798;2022-07-21T08:54:36;98414.38;;;39.14;27.24
14966;BME280;7577;45.226;5.798;2022-07-21T08:59:47;98404.64;;;38.12;26.20
14966;BME280;7577;45.226;5.798;2022-07-21T09:02:31;98399.95;;;36.43;30.71
14966;BME280;7577;45.226;5.798;2022-07-21T09:07:53;98401.41;;;38.22;32.51
14966;BME280;7577;45.226;5.798;2022-07-21T09:10:27;98407.16;;;38.92;27.44
14966;BME280;7577;45.226;5.798;2022-07-21T09:13:00;98399.60;;;39.33;26.29
14966;BME280;7577;45.226;5.798;2022-07-21T09:15:33;98393.97;;;38.59;26.20
14966;BME280;7577;45.226;5.798;2022-07-21T09:18:10;98390.45;;;38.81;28.66
14966;BME280;7577;45.226;5.798;2022-07-21T09:20:47;98392.19;;;38.35;28.74
14966;BME280;7577;45.226;5.798;2022-07-21T09:23:20;98392.34;;;39.06;26.35
14966;BME280;7577;45.226;5.798;2022-07-21T09:25:52;98392.34;;;39.06;25.42
14966;BME280;7577;45.226;5.798;2022-07-21T09:31:07;98380.42;;;37.61;27.74
14966;BME280;7577;45.226;5.798;2022-07-21T09:33:40;98382.62;;;36.74;29.57
14966;BME280;7577;45.226;5.798;2022-07-21T09:36:13;98384.34;;;37.46;29.07
14966;BME280;7577;45.226;5.798;2022-07-21T09:38:49;98382.06;;;37.66;27.67
14966;BME280;7577;45.226;5.798;2022-07-21T09:41:18;98378.37;;;37.11;28.23
14966;BME280;7577;45.226;5.798;2022-07-21T09:43:51;98369.98;;;35.85;29.48
14966;BME280;7577;45.226;5.798;2022-07-21T09:46:24;98366.92;;;35.39;30.61
14966;BME280;7577;45.226;5.798;2022-07-21T09:48:57;98360.33;;;35.18;31.02
14966;BME280;7577;45.226;5.798;2022-07-21T09:51:31;98357.43;;;35.62;30.72
14966;BME280;7577;45.226;5.798;2022-07-21T09:54:06;98364.48;;;34.82;32.17
14966;BME280;7577;45.226;5.798;2022-07-21T09:59:19;98351.66;;;35.17;31.77
14966;BME280;7577;45.226;5.798;2022-07-21T10:04:32;98345.37;;;34.94;32.80
14966;BME280;7577;45.226;5.798;2022-07-21T10:07:04;98344.77;;;35.02;31.65
14966;BME280;7577;45.226;5.798;2022-07-21T10:09:35;98348.98;;;34.59;32.49
14966;BME280;7577;45.226;5.798;2022-07-21T10:12:06;98348.58;;;34.68;33.56
14966;BME280;7577;45.226;5.798;2022-07-21T10:14:37;98345.98;;;34.58;32.37
14966;BME280;7577;45.226;5.798;2022-07-21T10:20:00;98341.68;;;34.03;33.04
14966;BME280;7577;45.226;5.798;2022-07-21T10:22:36;98339.45;;;34.14;33.08
14966;BME280;7577;45.226;5.798;2022-07-21T10:25:07;98336.72;;;34.38;33.09
14966;BME280;7577;45.226;5.798;2022-07-21T10:27:38;98332.77;;;34.24;33.13
14966;BME280;7577;45.226;5.798;2022-07-21T10:30:11;98335.48;;;34.31;32.33
14966;BME280;7577;45.226;5.798;2022-07-21T10:32:50;98329.67;;;33.99;33.66
14966;BME280;7577;45.226;5.798;2022-07-21T10:35:28;98336.02;;;33.83;33.41
14966;BME280;7577;45.226;5.798;2022-07-21T10:38:00;98325.82;;;33.89;34.49
14966;BME280;7577;45.226;5.798;2022-07-21T10:40:38;98320.72;;;34.12;34.21
14966;BME280;7577;45.226;5.798;2022-07-21T10:43:39;98316.22;;;34.22;33.27
14966;BME280;7577;45.226;5.798;2022-07-21T10:46:36;98314.33;;;34.27;33.52
14966;BME280;7577;45.226;5.798;2022-07-21T10:49:10;98315.67;;;34.11;33.98
14966;BME280;7577;45.226;5.798;2022-07-21T10:51:40;98315.97;;;33.97;33.12
14966;BME280;7577;45.226;5.798;2022-07-21T10:54:26;98319.27;;;34.04;33.82
14966;BME280;7577;45.226;5.798;2022-07-21T11:03:21;98311.91;;;33.98;34.17
14966;BME280;7577;45.226;5.798;2022-07-21T11:06:18;98297.25;;;33.84;33.25
14966;BME280;7577;45.226;5.798;2022-07-21T11:08:52;98298.50;;;33.83;32.93
14966;BME280;7577;45.226;5.798;2022-07-21T11:11:24;98294.78;;;33.74;33.86
14966;BME280;7577;45.226;5.798;2022-07-21T11:14:03;98297.86;;;33.83;33.13
14966;BME280;7577;45.226;5.798;2022-07-21T11:19:41;98286.08;;;33.34;34.17
14966;BME280;7577;45.226;5.798;2022-07-21T11:22:15;98280.55;;;33.50;34.72
14966;BME280;7577;45.226;5.798;2022-07-21T11:27:29;98273.20;;;33.64;34.44
14966;BME280;7577;45.226;5.798;2022-07-21T11:30:03;98270.92;;;33.67;34.40
14966;BME280;7577;45.226;5.798;2022-07-21T11:32:33;98260.19;;;33.78;33.76
14966;BME280;7577;45.226;5.798;2022-07-21T11:35:05;98255.77;;;33.89;33.10
14966;BME280;7577;45.226;5.798;2022-07-21T11:37:38;98259.28;;;33.85;33.58
14966;BME280;7577;45.226;5.798;2022-07-21T11:42:54;98251.31;;;33.48;33.23
14966;BME280;7577;45.226;5.798;2022-07-21T11:45:25;98248.36;;;33.56;33.81
14966;BME280;7577;45.226;5.798;2022-07-21T11:47:57;98242.50;;;33.54;32.91
14966;BME280;7577;45.226;5.798;2022-07-21T11:50:27;98234.45;;;33.45;33.70
14966;BME280;7577;45.226;5.798;2022-07-21T11:52:59;98230.11;;;33.06;34.32
14966;BME280;7577;45.226;5.798;2022-07-21T11:58:14;98219.77;;;33.42;33.42
14966;BME280;7577;45.226;5.798;2022-07-21T12:00:45;98218.80;;;33.60;33.39
14966;BME280;7577;45.226;5.798;2022-07-21T12:05:59;98213.73;;;33.71;32.49
14966;BME280;7577;45.226;5.798;2022-07-21T12:08:30;98210.02;;;33.54;33.51
14966;BME280;7577;45.226;5.798;2022-07-21T12:11:08;98206.59;;;33.75;33.59
14966;BME280;7577;45.226;5.798;2022-07-21T12:13:53;98199.91;;;33.77;32.86
14966;BME280;7577;45.226;5.798;2022-07-21T12:16:23;98206.25;;;33.92;32.85
14966;BME280;7577;45.226;5.798;2022-07-21T12:19:10;98195.14;;;34.09;32.51
14966;BME280;7577;45.226;5.798;2022-07-21T12:21:46;98188.31;;;33.91;32.79
14966;BME280;7577;45.226;5.798;2022-07-21T12:24:17;98188.86;;;34.02;32.96
14966;BME280;7577;45.226;5.798;2022-07-21T12:26:47;98179.05;;;33.98;32.00
14966;BME280;7577;45.226;5.798;2022-07-21T12:29:27;98183.46;;;33.99;32.23
14966;BME280;7577;45.226;5.798;2022-07-21T12:31:57;98180.73;;;33.96;32.81
14966;BME280;7577;45.226;5.798;2022-07-21T12:37:08;98159.44;;;33.99;32.12
14966;BME280;7577;45.226;5.798;2022-07-21T12:39:59;98156.06;;;33.96;32.29
14966;BME280;7577;45.226;5.798;2022-07-21T12:42:32;98150.59;;;33.89;32.12
14966;BME280;7577;45.226;5.798;2022-07-21T12:48:07;98150.73;;;34.18;32.27
14966;BME280;7577;45.226;5.798;2022-07-21T12:50:38;98149.59;;;34.23;32.21
14966;BME280;7577;45.226;5.798;2022-07-21T12:53:10;98152.16;;;34.26;31.59
14966;BME280;7577;45.226;5.798;2022-07-21T12:58:21;98150.73;;;34.18;32.40
14966;BME280;7577;45.226;5.798;2022-07-21T13:03:36;98141.27;;;34.16;31.28
14966;BME280;7577;45.226;5.798;2022-07-21T13:06:08;98136.84;;;34.07;32.20
14966;BME280;7577;45.226;5.798;2022-07-21T13:08:39;98136.73;;;34.03;31.37
14966;BME280;7577;45.226;5.798;2022-07-21T13:11:11;98132.26;;;34.05;31.98
14966;BME280;7577;45.226;5.798;2022-07-21T13:13:43;98130.06;;;34.21;31.91
14966;BME280;7577;45.226;5.798;2022-07-21T13:16:15;98124.89;;;33.92;31.35
14966;BME280;7577;45.226;5.798;2022-07-21T13:18:45;98120.46;;;33.83;31.56
14966;BME280;7577;45.226;5.798;2022-07-21T13:21:15;98122.66;;;33.83;31.71
14966;BME280;7577;45.226;5.798;2022-07-21T13:23:45;98122.42;;;33.74;31.37
14966;BME280;7577;45.226;5.798;2022-07-21T13:26:15;98120.19;;;33.58;31.62
14966;BME280;7577;45.226;5.798;2022-07-21T13:28:45;98119.17;;;33.76;32.30
14966;BME280;7577;45.226;5.798;2022-07-21T13:31:16;98111.81;;;33.98;32.47
14966;BME280;7577;45.226;5.798;2022-07-21T13:33:48;98115.75;;;34.12;31.62
14966;BME280;7577;45.226;5.798;2022-07-21T13:36:18;98109.20;;;34.23;31.27
14966;BME280;7577;45.226;5.798;2022-07-21T13:38:48;98107.55;;;34.33;31.15
14966;BME280;7577;45.226;5.798;2022-07-21T13:41:19;98109.58;;;34.49;31.05
14966;BME280;7577;45.226;5.798;2022-07-21T13:43:49;98100.66;;;34.50;30.79
14966;BME280;7577;45.226;5.798;2022-07-21T13:46:19;98094.08;;;34.53;30.91
14966;BME280;7577;45.226;5.798;2022-07-21T13:48:49;98098.86;;;34.64;29.93
14966;BME280;7577;45.226;5.798;2022-07-21T13:51:20;98100.10;;;34.63;29.86
14966;BME280;7577;45.226;5.798;2022-07-21T13:53:52;98092.00;;;34.49;30.41
14966;BME280;7577;45.226;5.798;2022-07-21T13:56:22;98081.56;;;34.46;31.04
14966;BME280;7577;45.226;5.798;2022-07-21T13:58:54;98085.53;;;34.41;31.18
14966;BME280;7577;45.226;5.798;2022-07-21T14:01:24;98077.95;;;34.30;29.96
14966;BME280;7577;45.226;5.798;2022-07-21T14:03:54;98079.00;;;34.36;30.62
14966;BME280;7577;45.226;5.798;2022-07-21T14:06:25;98067.31;;;34.18;31.44
14966;BME280;7577;45.226;5.798;2022-07-21T14:08:55;98067.59;;;34.31;30.89
14966;BME280;7577;45.226;5.798;2022-07-21T14:11:25;98073.17;;;34.35;30.88
14966;BME280;7577;45.226;5.798;2022-07-21T14:13:57;98069.48;;;34.30;31.10
14966;BME280;7577;45.226;5.798;2022-07-21T14:16:27;98065.20;;;34.46;29.61
14966;BME280;7577;45.226;5.798;2022-07-21T14:18:57;98057.52;;;34.38;28.97
14966;BME280;7577;45.226;5.798;2022-07-21T14:21:29;98060.08;;;34.49;29.42
14966;BME280;7577;45.226;5.798;2022-07-21T14:23:59;98060.23;;;34.58;29.97
14966;BME280;7577;45.226;5.798;2022-07-21T14:26:46;98051.64;;;34.61;29.44
14966;BME280;7577;45.226;5.798;2022-07-21T14:29:16;98050.48;;;34.83;29.73
14966;BME280;7577;45.226;5.798;2022-07-21T14:31:47;98045.27;;;34.81;29.54
14966;BME280;7577;45.226;5.798;2022-07-21T14:34:17;98049.51;;;34.81;29.39
14966;BME280;7577;45.226;5.798;2022-07-21T14:36:48;98042.97;;;34.68;28.55
14966;BME280;7577;45.226;5.798;2022-07-21T14:39:20;98046.07;;;34.66;29.04
14966;BME280;7577;45.226;5.798;2022-07-21T14:41:50;98042.00;;;34.67;29.36
14966;BME280;7577;45.226;5.798;2022-07-21T14:44:20;98041.11;;;34.70;29.73
14966;BME280;7577;45.226;5.798;2022-07-21T14:46:50;98042.87;;;34.80;30.06
14966;BME280;7577;45.226;5.798;2022-07-21T14:49:20;98040.13;;;34.84;29.72
14966;BME280;7577;45.226;5.798;2022-07-21T14:51:50;98043.84;;;34.73;29.68
14966;BME280;7577;45.226;5.798;2022-07-21T14:54:20;98038.88;;;34.33;29.71
14966;BME280;7577;45.226;5.798;2022-07-21T14:56:51;98034.44;;;34.24;30.26
14966;BME280;7577;45.226;5.798;2022-07-21T14:59:21;98038.44;;;34.34;29.93
14966;BME280;7577;45.226;5.798;2022-07-21T15:04:32;98030.78;;;34.63;30.50
14966;BME280;7577;45.226;5.798;2022-07-21T15:09:50;98032.34;;;34.72;30.29
14966;BME280;7577;45.226;5.798;2022-07-21T15:12:20;98030.55;;;34.42;29.78
14966;BME280;7577;45.226;5.798;2022-07-21T15:14:51;98025.80;;;34.39;30.65